sensor_id;sensor_type;location;lat;lon;timestamp;P1;durP1;ratioP1;P2;durP2;ratioP2
51270;SDS011;37744;50.960;4.136;2023-05-29T00:01:18;21.23;;;10.10;;
51270;SDS011;37744;50.960;4.136;2023-05-29T00:03:44;23.38;;;9.38;;
51270;SDS011;37744;50.960;4.136;2023-05-29T00:06:09;24.70;;;9.73;;
51270;SDS011;37744;50.960;4.136;2023-05-29T00:08:36;19.63;;;9.00;;
51270;SDS011;37744;50.960;4.136;2023-05-29T00:11:01;20.45;;;9.52;;
51270;SDS011;37744;50.960;4.136;2023-05-29T00:13:27;21.35;;;8.68;;
51270;SDS011;37744;50.960;4.136;2023-05-29T00:15:52;21.92;;;9.10;;
51270;SDS011;37744;50.960;4.136;2023-05-29T00:18:17;25.17;;;9.38;;
51270;SDS011;37744;50.960;4.136;2023-05-29T00:20:43;17.38;;;8.27;;
51270;SDS011;37744;50.960;4.136;2023-05-29T00:23:08;20.38;;;9.20;;
51270;SDS011;37744;50.960;4.136;2023-05-29T00:25:35;24.35;;;9.15;;
51270;SDS011;37744;50.960;4.136;2023-05-29T00:28:00;23.02;;;9.25;;
51270;SDS011;37744;50.960;4.136;2023-05-29T00:30:26;19.40;;;9.35;;
51270;SDS011;37744;50.960;4.136;2023-05-29T00:32:53;18.55;;;8.45;;
51270;SDS011;37744;50.960;4.136;2023-05-29T00:35:20;20.70;;;9.02;;
51270;SDS011;37744;50.960;4.136;2023-05-29T00:37:45;16.92;;;8.50;;
51270;SDS011;37744;50.960;4.136;2023-05-29T00:40:10;23.50;;;9.38;;
51270;SDS011;37744;50.960;4.136;2023-05-29T00:42:36;20.05;;;8.88;;
51270;SDS011;37744;50.960;4.136;2023-05-29T00:45:02;21.17;;;8.95;;
51270;SDS011;37744;50.960;4.136;2023-05-29T00:47:29;19.33;;;8.75;;
51270;SDS011;37744;50.960;4.136;2023-05-29T00:49:55;22.58;;;8.90;;
51270;SDS011;37744;50.960;4.136;2023-05-29T00:52:23;17.52;;;8.73;;
51270;SDS011;37744;50.960;4.136;2023-05-29T00:54:48;19.20;;;8.82;;
51270;SDS011;37744;50.960;4.136;2023-05-29T00:57:14;20.88;;;8.80;;
51270;SDS011;37744;50.960;4.136;2023-05-29T00:59:42;18.92;;;8.43;;
51270;SDS011;37744;50.960;4.136;2023-05-29T01:02:08;20.50;;;8.30;;
51270;SDS011;37744;50.960;4.136;2023-05-29T01:04:36;24.70;;;9.20;;
51270;SDS011;37744;50.960;4.136;2023-05-29T01:07:02;15.43;;;8.02;;
51270;SDS011;37744;50.960;4.136;2023-05-29T01:09:29;24.27;;;9.18;;
51270;SDS011;37744;50.960;4.136;2023-05-29T01:12:14;22.15;;;8.20;;
51270;SDS011;37744;50.960;4.136;2023-05-29T01:14:50;22.10;;;8.07;;
51270;SDS011;37744;50.960;4.136;2023-05-29T01:17:24;20.08;;;8.63;;
51270;SDS011;37744;50.960;4.136;2023-05-29T01:25:07;21.95;;;8.13;;
51270;SDS011;37744;50.960;4.136;2023-05-29T01:27:36;20.55;;;8.70;;
51270;SDS011;37744;50.960;4.136;2023-05-29T01:30:04;22.30;;;8.68;;
51270;SDS011;37744;50.960;4.136;2023-05-29T01:32:30;20.17;;;8.90;;
51270;SDS011;37744;50.960;4.136;2023-05-29T01:34:56;16.33;;;8.15;;
51270;SDS011;37744;50.960;4.136;2023-05-29T01:37:21;21.88;;;8.20;;
51270;SDS011;37744;50.960;4.136;2023-05-29T01:39:47;22.13;;;8.77;;
51270;SDS011;37744;50.960;4.136;2023-05-29T01:42:13;16.92;;;7.30;;
51270;SDS011;37744;50.960;4.136;2023-05-29T01:44:39;21.23;;;8.27;;
51270;SDS011;37744;50.960;4.136;2023-05-29T01:47:04;16.48;;;7.88;;
51270;SDS011;37744;50.960;4.136;2023-05-29T01:49:30;17.45;;;7.63;;
51270;SDS011;37744;50.960;4.136;2023-05-29T01:51:58;24.80;;;8.07;;
51270;SDS011;37744;50.960;4.136;2023-05-29T01:54:23;17.67;;;8.23;;
51270;SDS011;37744;50.960;4.136;2023-05-29T01:56:48;23.52;;;9.13;;
51270;SDS011;37744;50.960;4.136;2023-05-29T01:59:14;28.98;;;8.25;;
51270;SDS011;37744;50.960;4.136;2023-05-29T02:01:41;26.50;;;8.40;;
51270;SDS011;37744;50.960;4.136;2023-05-29T02:04:07;20.27;;;7.40;;
51270;SDS011;37744;50.960;4.136;2023-05-29T02:06:33;16.42;;;7.70;;
51270;SDS011;37744;50.960;4.136;2023-05-29T02:09:00;13.70;;;6.88;;
51270;SDS011;37744;50.960;4.136;2023-05-29T02:11:26;20.83;;;7.50;;
51270;SDS011;37744;50.960;4.136;2023-05-29T02:13:52;22.90;;;7.22;;
51270;SDS011;37744;50.960;4.136;2023-05-29T02:16:17;13.38;;;6.22;;
51270;SDS011;37744;50.960;4.136;2023-05-29T02:18:46;14.93;;;6.47;;
51270;SDS011;37744;50.960;4.136;2023-05-29T02:21:12;24.83;;;7.00;;
51270;SDS011;37744;50.960;4.136;2023-05-29T02:23:37;17.88;;;6.78;;
51270;SDS011;37744;50.960;4.136;2023-05-29T02:26:02;21.15;;;6.47;;
51270;SDS011;37744;50.960;4.136;2023-05-29T02:28:27;21.00;;;6.45;;
51270;SDS011;37744;50.960;4.136;2023-05-29T02:30:53;14.98;;;6.10;;
51270;SDS011;37744;50.960;4.136;2023-05-29T02:33:19;17.15;;;5.43;;
51270;SDS011;37744;50.960;4.136;2023-05-29T02:35:44;13.38;;;5.18;;
51270;SDS011;37744;50.960;4.136;2023-05-29T02:38:11;14.85;;;4.63;;
51270;SDS011;37744;50.960;4.136;2023-05-29T02:40:36;22.70;;;5.03;;
51270;SDS011;37744;50.960;4.136;2023-05-29T02:43:01;21.25;;;5.00;;
51270;SDS011;37744;50.960;4.136;2023-05-29T02:45:27;16.80;;;4.65;;
51270;SDS011;37744;50.960;4.136;2023-05-29T02:47:52;16.92;;;4.75;;
51270;SDS011;37744;50.960;4.136;2023-05-29T02:50:17;16.80;;;3.97;;
51270;SDS011;37744;50.960;4.136;2023-05-29T02:52:42;15.45;;;4.50;;
51270;SDS011;37744;50.960;4.136;2023-05-29T02:55:08;15.50;;;4.40;;
51270;SDS011;37744;50.960;4.136;2023-05-29T02:57:33;15.18;;;4.43;;
51270;SDS011;37744;50.960;4.136;2023-05-29T02:59:58;16.38;;;4.68;;
51270;SDS011;37744;50.960;4.136;2023-05-29T03:02:24;14.05;;;3.88;;
51270;SDS011;37744;50.960;4.136;2023-05-29T03:04:49;19.15;;;4.10;;
51270;SDS011;37744;50.960;4.136;2023-05-29T03:07:18;13.10;;;3.72;;
51270;SDS011;37744;50.960;4.136;2023-05-29T03:09:44;14.07;;;3.50;;
51270;SDS011;37744;50.960;4.136;2023-05-29T03:12:09;13.07;;;3.33;;
51270;SDS011;37744;50.960;4.136;2023-05-29T03:14:34;19.85;;;4.45;;
51270;SDS011;37744;50.960;4.136;2023-05-29T03:17:01;22.70;;;4.15;;
51270;SDS011;37744;50.960;4.136;2023-05-29T03:19:26;16.48;;;4.05;;
51270;SDS011;37744;50.960;4.136;2023-05-29T03:21:52;20.02;;;4.18;;
51270;SDS011;37744;50.960;4.136;2023-05-29T03:24:17;15.65;;;3.83;;
51270;SDS011;37744;50.960;4.136;2023-05-29T03:26:44;16.58;;;3.65;;
51270;SDS011;37744;50.960;4.136;2023-05-29T03:29:09;13.95;;;3.38;;
51270;SDS011;37744;50.960;4.136;2023-05-29T03:31:34;16.15;;;3.25;;
51270;SDS011;37744;50.960;4.136;2023-05-29T03:34:00;18.48;;;3.53;;
51270;SDS011;37744;50.960;4.136;2023-05-29T03:36:25;11.35;;;3.00;;
51270;SDS011;37744;50.960;4.136;2023-05-29T03:38:51;10.27;;;3.78;;
51270;SDS011;37744;50.960;4.136;2023-05-29T03:41:18;15.15;;;2.92;;
51270;SDS011;37744;50.960;4.136;2023-05-29T03:43:43;16.88;;;3.38;;
51270;SDS011;37744;50.960;4.136;2023-05-29T03:46:08;14.80;;;3.33;;
51270;SDS011;37744;50.960;4.136;2023-05-29T03:48:33;15.45;;;3.85;;
51270;SDS011;37744;50.960;4.136;2023-05-29T03:50:58;11.15;;;3.10;;
51270;SDS011;37744;50.960;4.136;2023-05-29T03:53:24;11.82;;;2.97;;
51270;SDS011;37744;50.960;4.136;2023-05-29T03:55:49;19.85;;;3.20;;
51270;SDS011;37744;50.960;4.136;2023-05-29T03:58:15;10.95;;;3.72;;
51270;SDS011;37744;50.960;4.136;2023-05-29T04:00:41;13.48;;;2.97;;
51270;SDS011;37744;50.960;4.136;2023-05-29T04:03:07;14.38;;;3.97;;
51270;SDS011;37744;50.960;4.136;2023-05-29T04:05:33;16.58;;;3.42;;
51270;SDS011;37744;50.960;4.136;2023-05-29T04:07:58;14.48;;;3.13;;
51270;SDS011;37744;50.960;4.136;2023-05-29T04:10:23;15.38;;;3.58;;
51270;SDS011;37744;50.960;4.136;2023-05-29T04:12:49;14.15;;;3.05;;
51270;SDS011;37744;50.960;4.136;2023-05-29T04:15:15;17.48;;;3.10;;
51270;SDS011;37744;50.960;4.136;2023-05-29T04:17:40;16.23;;;3.00;;
51270;SDS011;37744;50.960;4.136;2023-05-29T04:20:05;11.35;;;3.22;;
51270;SDS011;37744;50.960;4.136;2023-05-29T04:22:36;16.58;;;3.58;;
51270;SDS011;37744;50.960;4.136;2023-05-29T04:25:02;16.15;;;3.88;;
51270;SDS011;37744;50.960;4.136;2023-05-29T04:27:30;14.80;;;3.22;;
51270;SDS011;37744;50.960;4.136;2023-05-29T04:29:57;20.52;;;3.88;;
51270;SDS011;37744;50.960;4.136;2023-05-29T04:32:22;15.18;;;3.65;;
51270;SDS011;37744;50.960;4.136;2023-05-29T04:34:47;13.13;;;2.97;;
51270;SDS011;37744;50.960;4.136;2023-05-29T04:37:14;14.85;;;3.60;;
51270;SDS011;37744;50.960;4.136;2023-05-29T04:39:39;14.35;;;4.10;;
51270;SDS011;37744;50.960;4.136;2023-05-29T04:42:05;15.73;;;3.08;;
51270;SDS011;37744;50.960;4.136;2023-05-29T04:44:30;16.23;;;3.80;;
51270;SDS011;37744;50.960;4.136;2023-05-29T04:46:56;17.88;;;3.72;;
51270;SDS011;37744;50.960;4.136;2023-05-29T04:49:28;12.05;;;3.25;;
51270;SDS011;37744;50.960;4.136;2023-05-29T04:51:53;23.20;;;3.85;;
51270;SDS011;37744;50.960;4.136;2023-05-29T04:54:19;12.57;;;2.92;;
51270;SDS011;37744;50.960;4.136;2023-05-29T04:56:45;13.70;;;3.05;;
51270;SDS011;37744;50.960;4.136;2023-05-29T04:59:12;17.73;;;3.13;;
51270;SDS011;37744;50.960;4.136;2023-05-29T05:01:37;12.30;;;3.17;;
51270;SDS011;37744;50.960;4.136;2023-05-29T05:04:03;16.67;;;4.05;;
51270;SDS011;37744;50.960;4.136;2023-05-29T05:06:28;15.95;;;3.75;;
51270;SDS011;37744;50.960;4.136;2023-05-29T05:08:54;12.88;;;3.08;;
51270;SDS011;37744;50.960;4.136;2023-05-29T05:11:21;17.70;;;3.85;;
51270;SDS011;37744;50.960;4.136;2023-05-29T05:13:46;15.95;;;3.80;;
51270;SDS011;37744;50.960;4.136;2023-05-29T05:16:11;12.45;;;3.03;;
51270;SDS011;37744;50.960;4.136;2023-05-29T05:18:37;16.40;;;3.42;;
51270;SDS011;37744;50.960;4.136;2023-05-29T05:21:02;18.42;;;3.67;;
51270;SDS011;37744;50.960;4.136;2023-05-29T05:23:31;22.23;;;3.78;;
51270;SDS011;37744;50.960;4.136;2023-05-29T05:25:56;16.58;;;3.28;;
51270;SDS011;37744;50.960;4.136;2023-05-29T05:28:22;11.13;;;3.05;;
51270;SDS011;37744;50.960;4.136;2023-05-29T05:30:47;24.13;;;3.70;;
51270;SDS011;37744;50.960;4.136;2023-05-29T05:33:12;14.52;;;3.42;;
51270;SDS011;37744;50.960;4.136;2023-05-29T05:35:38;18.33;;;3.75;;
51270;SDS011;37744;50.960;4.136;2023-05-29T05:38:03;13.18;;;3.22;;
51270;SDS011;37744;50.960;4.136;2023-05-29T05:40:29;16.83;;;2.97;;
51270;SDS011;37744;50.960;4.136;2023-05-29T05:42:55;16.15;;;3.92;;
51270;SDS011;37744;50.960;4.136;2023-05-29T05:45:21;16.52;;;2.85;;
51270;SDS011;37744;50.960;4.136;2023-05-29T05:47:47;17.65;;;3.53;;
51270;SDS011;37744;50.960;4.136;2023-05-29T05:50:12;14.98;;;3.53;;
51270;SDS011;37744;50.960;4.136;2023-05-29T05:52:39;20.27;;;4.28;;
51270;SDS011;37744;50.960;4.136;2023-05-29T05:55:04;18.42;;;3.40;;
51270;SDS011;37744;50.960;4.136;2023-05-29T05:57:31;17.58;;;3.78;;
51270;SDS011;37744;50.960;4.136;2023-05-29T05:59:59;16.63;;;3.72;;
51270;SDS011;37744;50.960;4.136;2023-05-29T06:02:25;21.13;;;3.78;;
51270;SDS011;37744;50.960;4.136;2023-05-29T06:04:50;12.82;;;2.85;;
51270;SDS011;37744;50.960;4.136;2023-05-29T06:07:16;15.77;;;3.60;;
51270;SDS011;37744;50.960;4.136;2023-05-29T06:09:41;19.83;;;3.80;;
51270;SDS011;37744;50.960;4.136;2023-05-29T06:12:07;13.25;;;3.17;;
51270;SDS011;37744;50.960;4.136;2023-05-29T06:14:33;17.98;;;3.53;;
51270;SDS011;37744;50.960;4.136;2023-05-29T06:16:59;19.20;;;3.28;;
51270;SDS011;37744;50.960;4.136;2023-05-29T06:19:24;15.90;;;3.80;;
51270;SDS011;37744;50.960;4.136;2023-05-29T06:21:50;17.73;;;3.80;;
51270;SDS011;37744;50.960;4.136;2023-05-29T06:24:15;16.42;;;3.50;;
51270;SDS011;37744;50.960;4.136;2023-05-29T06:26:41;20.23;;;3.83;;
51270;SDS011;37744;50.960;4.136;2023-05-29T06:29:07;17.13;;;2.90;;
51270;SDS011;37744;50.960;4.136;2023-05-29T06:31:32;16.85;;;4.18;;
51270;SDS011;37744;50.960;4.136;2023-05-29T06:33:58;15.00;;;3.80;;
51270;SDS011;37744;50.960;4.136;2023-05-29T06:36:23;15.95;;;3.05;;
51270;SDS011;37744;50.960;4.136;2023-05-29T06:38:49;16.38;;;3.33;;
51270;SDS011;37744;50.960;4.136;2023-05-29T06:41:15;15.50;;;3.03;;
51270;SDS011;37744;50.960;4.136;2023-05-29T06:43:40;16.95;;;3.15;;
51270;SDS011;37744;50.960;4.136;2023-05-29T06:46:06;15.32;;;2.95;;
51270;SDS011;37744;50.960;4.136;2023-05-29T06:48:32;14.18;;;3.50;;
51270;SDS011;37744;50.960;4.136;2023-05-29T06:50:58;16.75;;;3.42;;
51270;SDS011;37744;50.960;4.136;2023-05-29T06:53:23;11.85;;;3.17;;
51270;SDS011;37744;50.960;4.136;2023-05-29T06:55:48;12.63;;;3.05;;
51270;SDS011;37744;50.960;4.136;2023-05-29T06:58:13;15.32;;;3.13;;
51270;SDS011;37744;50.960;4.136;2023-05-29T07:00:39;12.15;;;3.05;;
51270;SDS011;37744;50.960;4.136;2023-05-29T07:03:04;17.95;;;3.28;;
51270;SDS011;37744;50.960;4.136;2023-05-29T07:05:31;18.88;;;3.38;;
51270;SDS011;37744;50.960;4.136;2023-05-29T07:07:56;13.90;;;2.97;;
51270;SDS011;37744;50.960;4.136;2023-05-29T07:10:21;12.18;;;3.08;;
51270;SDS011;37744;50.960;4.136;2023-05-29T07:12:47;10.98;;;2.72;;
51270;SDS011;37744;50.960;4.136;2023-05-29T07:15:12;17.52;;;3.20;;
51270;SDS011;37744;50.960;4.136;2023-05-29T07:17:37;16.55;;;2.92;;
51270;SDS011;37744;50.960;4.136;2023-05-29T07:20:02;11.63;;;2.67;;
51270;SDS011;37744;50.960;4.136;2023-05-29T07:22:31;9.30;;;3.15;;
51270;SDS011;37744;50.960;4.136;2023-05-29T07:24:56;10.02;;;3.03;;
51270;SDS011;37744;50.960;4.136;2023-05-29T07:27:21;17.45;;;3.00;;
51270;SDS011;37744;50.960;4.136;2023-05-29T07:29:47;12.07;;;3.08;;
51270;SDS011;37744;50.960;4.136;2023-05-29T07:32:14;11.75;;;2.67;;
51270;SDS011;37744;50.960;4.136;2023-05-29T07:34:40;10.32;;;2.85;;
51270;SDS011;37744;50.960;4.136;2023-05-29T07:37:06;13.32;;;2.85;;
51270;SDS011;37744;50.960;4.136;2023-05-29T07:39:32;11.40;;;2.92;;
51270;SDS011;37744;50.960;4.136;2023-05-29T07:41:58;12.98;;;3.05;;
51270;SDS011;37744;50.960;4.136;2023-05-29T07:44:24;15.57;;;3.13;;
51270;SDS011;37744;50.960;4.136;2023-05-29T07:46:51;10.50;;;2.83;;
51270;SDS011;37744;50.960;4.136;2023-05-29T07:49:18;15.20;;;3.20;;
51270;SDS011;37744;50.960;4.136;2023-05-29T07:51:45;16.40;;;3.22;;
51270;SDS011;37744;50.960;4.136;2023-05-29T07:54:10;15.18;;;3.30;;
51270;SDS011;37744;50.960;4.136;2023-05-29T07:56:37;12.95;;;3.25;;
51270;SDS011;37744;50.960;4.136;2023-05-29T07:59:03;19.58;;;3.05;;
51270;SDS011;37744;50.960;4.136;2023-05-29T08:01:29;16.02;;;3.40;;
51270;SDS011;37744;50.960;4.136;2023-05-29T08:03:54;11.60;;;3.13;;
51270;SDS011;37744;50.960;4.136;2023-05-29T08:06:20;19.90;;;3.58;;
51270;SDS011;37744;50.960;4.136;2023-05-29T08:08:47;10.23;;;3.00;;
51270;SDS011;37744;50.960;4.136;2023-05-29T08:11:13;12.32;;;2.83;;
51270;SDS011;37744;50.960;4.136;2023-05-29T08:13:39;19.23;;;3.00;;
51270;SDS011;37744;50.960;4.136;2023-05-29T08:16:05;14.07;;;3.17;;
51270;SDS011;37744;50.960;4.136;2023-05-29T08:18:31;11.57;;;3.03;;
51270;SDS011;37744;50.960;4.136;2023-05-29T08:20:57;13.60;;;2.90;;
51270;SDS011;37744;50.960;4.136;2023-05-29T08:23:23;14.00;;;3.25;;
51270;SDS011;37744;50.960;4.136;2023-05-29T08:25:48;12.57;;;2.80;;
51270;SDS011;37744;50.960;4.136;2023-05-29T08:28:16;15.18;;;3.17;;
51270;SDS011;37744;50.960;4.136;2023-05-29T08:30:42;7.57;;;3.00;;
51270;SDS011;37744;50.960;4.136;2023-05-29T08:33:10;13.95;;;2.80;;
51270;SDS011;37744;50.960;4.136;2023-05-29T08:35:35;15.30;;;3.35;;
51270;SDS011;37744;50.960;4.136;2023-05-29T08:38:01;11.15;;;3.30;;
51270;SDS011;37744;50.960;4.136;2023-05-29T08:40:26;15.45;;;3.03;;
51270;SDS011;37744;50.960;4.136;2023-05-29T08:42:59;11.88;;;3.03;;
51270;SDS011;37744;50.960;4.136;2023-05-29T08:45:26;9.32;;;3.10;;
51270;SDS011;37744;50.960;4.136;2023-05-29T08:47:53;16.90;;;3.50;;
51270;SDS011;37744;50.960;4.136;2023-05-29T08:50:19;12.23;;;3.13;;
51270;SDS011;37744;50.960;4.136;2023-05-29T08:52:45;15.27;;;3.13;;
51270;SDS011;37744;50.960;4.136;2023-05-29T08:55:10;13.30;;;2.80;;
51270;SDS011;37744;50.960;4.136;2023-05-29T08:57:36;10.98;;;2.70;;
51270;SDS011;37744;50.960;4.136;2023-05-29T09:00:03;11.57;;;3.20;;
51270;SDS011;37744;50.960;4.136;2023-05-29T09:02:34;12.20;;;2.75;;
51270;SDS011;37744;50.960;4.136;2023-05-29T09:05:01;12.48;;;2.70;;
51270;SDS011;37744;50.960;4.136;2023-05-29T09:07:26;8.77;;;3.00;;
51270;SDS011;37744;50.960;4.136;2023-05-29T09:09:51;11.55;;;2.90;;
51270;SDS011;37744;50.960;4.136;2023-05-29T09:12:16;13.02;;;2.50;;
51270;SDS011;37744;50.960;4.136;2023-05-29T09:14:43;9.65;;;2.65;;
51270;SDS011;37744;50.960;4.136;2023-05-29T09:17:10;13.90;;;2.58;;
51270;SDS011;37744;50.960;4.136;2023-05-29T09:19:35;9.02;;;2.20;;
51270;SDS011;37744;50.960;4.136;2023-05-29T09:22:01;13.18;;;2.45;;
51270;SDS011;37744;50.960;4.136;2023-05-29T09:24:28;10.23;;;3.03;;
51270;SDS011;37744;50.960;4.136;2023-05-29T09:26:53;17.10;;;2.70;;
51270;SDS011;37744;50.960;4.136;2023-05-29T09:29:19;10.02;;;2.47;;
51270;SDS011;37744;50.960;4.136;2023-05-29T09:31:47;9.88;;;2.60;;
51270;SDS011;37744;50.960;4.136;2023-05-29T09:34:13;13.15;;;2.97;;
51270;SDS011;37744;50.960;4.136;2023-05-29T09:36:38;9.88;;;2.67;;
51270;SDS011;37744;50.960;4.136;2023-05-29T09:39:04;15.60;;;2.70;;
51270;SDS011;37744;50.960;4.136;2023-05-29T09:41:29;13.23;;;2.67;;
51270;SDS011;37744;50.960;4.136;2023-05-29T09:43:56;11.40;;;2.85;;
51270;SDS011;37744;50.960;4.136;2023-05-29T09:46:21;12.82;;;3.28;;
51270;SDS011;37744;50.960;4.136;2023-05-29T09:48:47;10.18;;;2.35;;
51270;SDS011;37744;50.960;4.136;2023-05-29T09:51:20;11.70;;;3.10;;
51270;SDS011;37744;50.960;4.136;2023-05-29T09:53:47;14.90;;;3.20;;
51270;SDS011;37744;50.960;4.136;2023-05-29T09:56:12;11.35;;;2.25;;
51270;SDS011;37744;50.960;4.136;2023-05-29T09:58:40;12.00;;;2.72;;
51270;SDS011;37744;50.960;4.136;2023-05-29T10:01:11;8.90;;;2.38;;
51270;SDS011;37744;50.960;4.136;2023-05-29T10:03:36;8.60;;;2.65;;
51270;SDS011;37744;50.960;4.136;2023-05-29T10:06:01;10.93;;;2.97;;
51270;SDS011;37744;50.960;4.136;2023-05-29T10:08:27;9.48;;;2.30;;
51270;SDS011;37744;50.960;4.136;2023-05-29T10:11:01;10.60;;;2.70;;
51270;SDS011;37744;50.960;4.136;2023-05-29T10:13:31;13.73;;;3.28;;
51270;SDS011;37744;50.960;4.136;2023-05-29T10:16:00;11.88;;;2.95;;
51270;SDS011;37744;50.960;4.136;2023-05-29T10:18:38;11.35;;;2.65;;
51270;SDS011;37744;50.960;4.136;2023-05-29T10:21:03;11.63;;;2.70;;
51270;SDS011;37744;50.960;4.136;2023-05-29T10:23:29;13.82;;;3.00;;
51270;SDS011;37744;50.960;4.136;2023-05-29T10:25:57;10.50;;;2.90;;
51270;SDS011;37744;50.960;4.136;2023-05-29T10:28:25;13.02;;;2.88;;
51270;SDS011;37744;50.960;4.136;2023-05-29T10:30:53;9.23;;;2.70;;
51270;SDS011;37744;50.960;4.136;2023-05-29T10:33:42;13.48;;;2.80;;
51270;SDS011;37744;50.960;4.136;2023-05-29T10:38:40;11.70;;;3.08;;
51270;SDS011;37744;50.960;4.136;2023-05-29T10:44:03;12.05;;;2.70;;
51270;SDS011;37744;50.960;4.136;2023-05-29T10:49:05;11.27;;;2.50;;
51270;SDS011;37744;50.960;4.136;2023-05-29T10:51:40;17.08;;;2.53;;
51270;SDS011;37744;50.960;4.136;2023-05-29T10:54:05;8.98;;;2.40;;
51270;SDS011;37744;50.960;4.136;2023-05-29T10:56:31;8.55;;;2.80;;
51270;SDS011;37744;50.960;4.136;2023-05-29T10:58:57;12.35;;;3.00;;
51270;SDS011;37744;50.960;4.136;2023-05-29T11:01:23;8.13;;;2.88;;
51270;SDS011;37744;50.960;4.136;2023-05-29T11:03:49;11.10;;;2.40;;
51270;SDS011;37744;50.960;4.136;2023-05-29T11:06:18;7.03;;;2.50;;
51270;SDS011;37744;50.960;4.136;2023-05-29T11:08:47;7.82;;;2.67;;
51270;SDS011;37744;50.960;4.136;2023-05-29T11:11:13;11.60;;;2.58;;
51270;SDS011;37744;50.960;4.136;2023-05-29T11:13:38;12.27;;;2.28;;
51270;SDS011;37744;50.960;4.136;2023-05-29T11:18:38;11.32;;;3.03;;
51270;SDS011;37744;50.960;4.136;2023-05-29T11:21:03;8.75;;;2.65;;
51270;SDS011;37744;50.960;4.136;2023-05-29T11:23:31;10.82;;;2.47;;
51270;SDS011;37744;50.960;4.136;2023-05-29T11:25:56;10.68;;;2.53;;
51270;SDS011;37744;50.960;4.136;2023-05-29T11:28:22;12.02;;;2.45;;
51270;SDS011;37744;50.960;4.136;2023-05-29T11:30:47;9.68;;;2.53;;
51270;SDS011;37744;50.960;4.136;2023-05-29T11:33:19;9.75;;;2.72;;
51270;SDS011;37744;50.960;4.136;2023-05-29T11:35:49;7.07;;;2.10;;
51270;SDS011;37744;50.960;4.136;2023-05-29T11:38:15;12.13;;;2.90;;
51270;SDS011;37744;50.960;4.136;2023-05-29T11:40:40;8.13;;;2.50;;
51270;SDS011;37744;50.960;4.136;2023-05-29T11:43:06;8.52;;;2.85;;
51270;SDS011;37744;50.960;4.136;2023-05-29T11:45:32;11.85;;;2.50;;
51270;SDS011;37744;50.960;4.136;2023-05-29T11:48:02;9.88;;;2.92;;
51270;SDS011;37744;50.960;4.136;2023-05-29T11:50:28;10.60;;;2.30;;
51270;SDS011;37744;50.960;4.136;2023-05-29T11:52:55;7.53;;;2.95;;
51270;SDS011;37744;50.960;4.136;2023-05-29T11:55:20;11.30;;;2.88;;
51270;SDS011;37744;50.960;4.136;2023-05-29T11:57:47;9.55;;;2.67;;
51270;SDS011;37744;50.960;4.136;2023-05-29T12:00:13;10.35;;;2.40;;
51270;SDS011;37744;50.960;4.136;2023-05-29T12:02:39;7.65;;;2.75;;
51270;SDS011;37744;50.960;4.136;2023-05-29T12:05:07;10.77;;;2.63;;
51270;SDS011;37744;50.960;4.136;2023-05-29T12:07:33;13.10;;;2.88;;
51270;SDS011;37744;50.960;4.136;2023-05-29T12:10:19;12.30;;;2.60;;
51270;SDS011;37744;50.960;4.136;2023-05-29T12:12:50;8.48;;;2.42;;
51270;SDS011;37744;50.960;4.136;2023-05-29T12:15:16;11.40;;;2.67;;
51270;SDS011;37744;50.960;4.136;2023-05-29T12:17:43;9.32;;;2.47;;
51270;SDS011;37744;50.960;4.136;2023-05-29T12:20:09;9.38;;;2.50;;
51270;SDS011;37744;50.960;4.136;2023-05-29T12:22:36;10.20;;;2.55;;
51270;SDS011;37744;50.960;4.136;2023-05-29T12:25:06;12.65;;;2.63;;
51270;SDS011;37744;50.960;4.136;2023-05-29T12:27:32;8.32;;;2.40;;
51270;SDS011;37744;50.960;4.136;2023-05-29T12:30:01;12.77;;;2.63;;
51270;SDS011;37744;50.960;4.136;2023-05-29T12:32:33;6.55;;;2.45;;
51270;SDS011;37744;50.960;4.136;2023-05-29T12:35:00;10.63;;;2.97;;
51270;SDS011;37744;50.960;4.136;2023-05-29T12:37:25;8.82;;;2.22;;
51270;SDS011;37744;50.960;4.136;2023-05-29T12:40:09;12.48;;;3.08;;
51270;SDS011;37744;50.960;4.136;2023-05-29T12:42:37;11.07;;;2.60;;
51270;SDS011;37744;50.960;4.136;2023-05-29T12:45:02;8.80;;;2.80;;
51270;SDS011;37744;50.960;4.136;2023-05-29T12:47:31;11.55;;;2.75;;
51270;SDS011;37744;50.960;4.136;2023-05-29T12:49:57;17.23;;;3.00;;
51270;SDS011;37744;50.960;4.136;2023-05-29T12:52:23;13.20;;;2.97;;
51270;SDS011;37744;50.960;4.136;2023-05-29T12:54:49;9.65;;;2.60;;
51270;SDS011;37744;50.960;4.136;2023-05-29T12:57:14;8.70;;;2.65;;
51270;SDS011;37744;50.960;4.136;2023-05-29T12:59:39;9.85;;;3.20;;
51270;SDS011;37744;50.960;4.136;2023-05-29T13:02:05;8.80;;;2.88;;
51270;SDS011;37744;50.960;4.136;2023-05-29T13:04:32;8.13;;;2.55;;
51270;SDS011;37744;50.960;4.136;2023-05-29T13:06:57;9.13;;;3.10;;
51270;SDS011;37744;50.960;4.136;2023-05-29T13:09:23;8.60;;;2.60;;
51270;SDS011;37744;50.960;4.136;2023-05-29T13:11:48;11.77;;;2.90;;
51270;SDS011;37744;50.960;4.136;2023-05-29T13:14:13;9.48;;;2.78;;
51270;SDS011;37744;50.960;4.136;2023-05-29T13:16:40;9.68;;;3.00;;
51270;SDS011;37744;50.960;4.136;2023-05-29T13:19:05;5.43;;;2.70;;
51270;SDS011;37744;50.960;4.136;2023-05-29T13:21:31;8.55;;;2.85;;
51270;SDS011;37744;50.960;4.136;2023-05-29T13:23:58;10.98;;;2.60;;
51270;SDS011;37744;50.960;4.136;2023-05-29T13:26:23;11.50;;;2.75;;
51270;SDS011;37744;50.960;4.136;2023-05-29T13:28:50;10.25;;;3.25;;
51270;SDS011;37744;50.960;4.136;2023-05-29T13:31:17;10.70;;;2.90;;
51270;SDS011;37744;50.960;4.136;2023-05-29T13:33:45;8.05;;;2.55;;
51270;SDS011;37744;50.960;4.136;2023-05-29T13:36:11;10.10;;;2.67;;
51270;SDS011;37744;50.960;4.136;2023-05-29T13:38:37;14.13;;;2.90;;
51270;SDS011;37744;50.960;4.136;2023-05-29T13:41:02;14.55;;;2.92;;
51270;SDS011;37744;50.960;4.136;2023-05-29T13:43:28;8.70;;;2.78;;
51270;SDS011;37744;50.960;4.136;2023-05-29T13:45:53;14.30;;;3.30;;
51270;SDS011;37744;50.960;4.136;2023-05-29T13:48:18;12.07;;;2.60;;
51270;SDS011;37744;50.960;4.136;2023-05-29T13:50:44;8.07;;;2.50;;
51270;SDS011;37744;50.960;4.136;2023-05-29T13:53:09;9.43;;;2.45;;
51270;SDS011;37744;50.960;4.136;2023-05-29T13:55:34;7.50;;;2.72;;
51270;SDS011;37744;50.960;4.136;2023-05-29T13:57:59;7.13;;;2.67;;
51270;SDS011;37744;50.960;4.136;2023-05-29T14:00:26;9.65;;;2.38;;
51270;SDS011;37744;50.960;4.136;2023-05-29T14:02:51;9.98;;;3.08;;
51270;SDS011;37744;50.960;4.136;2023-05-29T14:05:17;9.97;;;3.30;;
51270;SDS011;37744;50.960;4.136;2023-05-29T14:07:43;10.35;;;2.88;;
51270;SDS011;37744;50.960;4.136;2023-05-29T14:10:08;7.28;;;2.67;;
51270;SDS011;37744;50.960;4.136;2023-05-29T14:12:34;8.50;;;2.70;;
51270;SDS011;37744;50.960;4.136;2023-05-29T14:14:59;11.50;;;2.80;;
51270;SDS011;37744;50.960;4.136;2023-05-29T14:17:25;6.90;;;2.65;;
51270;SDS011;37744;50.960;4.136;2023-05-29T14:19:51;10.50;;;2.70;;
51270;SDS011;37744;50.960;4.136;2023-05-29T14:22:16;10.57;;;3.20;;
51270;SDS011;37744;50.960;4.136;2023-05-29T14:24:41;9.00;;;2.42;;
51270;SDS011;37744;50.960;4.136;2023-05-29T14:27:07;7.78;;;2.60;;
51270;SDS011;37744;50.960;4.136;2023-05-29T14:29:32;12.63;;;2.65;;
51270;SDS011;37744;50.960;4.136;2023-05-29T14:31:57;6.97;;;2.45;;
51270;SDS011;37744;50.960;4.136;2023-05-29T14:34:23;9.55;;;3.22;;
51270;SDS011;37744;50.960;4.136;2023-05-29T14:36:49;11.10;;;2.83;;
51270;SDS011;37744;50.960;4.136;2023-05-29T14:39:14;7.93;;;2.60;;
51270;SDS011;37744;50.960;4.136;2023-05-29T14:41:39;10.70;;;3.00;;
51270;SDS011;37744;50.960;4.136;2023-05-29T14:44:05;8.13;;;2.38;;
51270;SDS011;37744;50.960;4.136;2023-05-29T14:46:30;9.90;;;2.85;;